Time;durP1;ratioP1;P1;durP2;ratioP2;P2;SDS_P1;SDS_P2;PMS_P1;PMS_P2;Temp;Humidity;BMP_temperature;BMP_pressure;BME280_temperature;BME280_humidity;BME280_pressure;Samples;Min_cycle;Max_cycle;Signal;HPM_P1;HPM_P2
2022/12/04 00:02:07;;;;;;;13.83;8.18;;;;;;;-2.13;64.09;102797.58;1793426;79;21045;-74
2022/12/04 00:04:34;;;;;;;14.85;8.15;;;;;;;-2.12;64.17;102795.79;1806350;79;21185;-75
2022/12/04 00:07:00;;;;;;;12.40;7.10;;;;;;;-2.07;64.22;102796.28;1806221;79;21431;-74
2022/12/04 00:09:28;;;;;;;14.93;8.53;;;;;;;-2.06;64.16;102801.04;1806364;79;21023;-74
2022/12/04 00:11:55;;;;;;;13.18;8.60;;;;;;;-2.10;64.14;102795.21;1806312;79;21470;-74
2022/12/04 00:14:21;;;;;;;12.78;7.70;;;;;;;-2.10;63.94;102797.00;1800414;79;21066;-74
2022/12/04 00:16:49;;;;;;;11.10;7.33;;;;;;;-2.11;63.86;102794.13;1774583;80;21637;-74
2022/12/04 00:19:16;;;;;;;13.62;7.55;;;;;;;-2.13;63.82;102794.13;1774200;80;21035;-74
2022/12/04 00:21:44;;;;;;;11.63;7.70;;;;;;;-2.11;63.99;102801.38;1774717;80;21027;-75
2022/12/04 00:24:11;;;;;;;12.15;7.62;;;;;;;-2.09;64.01;102804.72;1774584;80;21051;-75
2022/12/04 00:26:37;;;;;;;13.93;8.23;;;;;;;-2.17;63.99;102805.32;1774592;80;20987;-74
2022/12/04 00:29:06;;;;;;;14.80;7.83;;;;;;;-2.18;63.94;102806.25;1774481;80;21530;-74
2022/12/04 00:31:32;;;;;;;14.07;8.53;;;;;;;-2.20;63.88;102814.72;1775884;79;21031;-75
2022/12/04 00:33:59;;;;;;;12.73;7.67;;;;;;;-2.20;63.88;102814.72;1774640;80;21043;-75
2022/12/04 00:36:26;;;;;;;13.95;7.95;;;;;;;-2.19;64.27;102806.38;1774288;80;21008;-75
2022/12/04 00:38:53;;;;;;;12.78;8.13;;;;;;;-2.19;64.18;102807.21;1774619;80;21004;-75
2022/12/04 00:41:22;;;;;;;11.78;7.33;;;;;;;-2.16;64.18;102800.44;1774562;80;21151;-74
2022/12/04 00:43:49;;;;;;;12.60;7.37;;;;;;;-2.15;64.24;102803.40;1774380;80;21027;-74
2022/12/04 00:46:16;;;;;;;11.40;7.12;;;;;;;-2.09;64.22;102805.20;1774462;80;21051;-75
2022/12/04 00:48:43;;;;;;;11.70;7.12;;;;;;;-2.09;64.28;102802.10;1775434;79;20944;-75
2022/12/04 00:51:13;;;;;;;13.38;7.95;;;;;;;-2.05;64.28;102803.52;1774562;80;20999;-74
2022/12/04 00:53:40;;;;;;;13.90;8.40;;;;;;;-2.09;64.26;102801.27;1774537;79;21115;-75
2022/12/04 00:56:11;;;;;;;13.00;7.60;;;;;;;-2.08;64.28;102802.93;1774542;80;20944;-75
2022/12/04 00:58:38;;;;;;;12.00;7.85;;;;;;;-2.11;64.36;102802.69;1783074;79;20954;-75
2022/12/04 01:01:08;;;;;;;11.53;7.78;;;;;;;-2.11;64.43;102800.06;1793356;80;20966;-75
2022/12/04 01:03:35;;;;;;;14.80;7.80;;;;;;;-2.11;64.57;102801.38;1800472;79;20972;-75
2022/12/04 01:06:01;;;;;;;13.70;8.08;;;;;;;-2.12;64.43;102804.47;1791516;79;21147;-74
2022/12/04 01:08:29;;;;;;;11.73;7.50;;;;;;;-2.10;64.54;102804.85;1774380;80;21034;-75
2022/12/04 01:10:55;;;;;;;12.18;7.33;;;;;;;-2.07;64.56;102805.90;1774696;80;21013;-75
2022/12/04 01:13:23;;;;;;;13.45;7.95;;;;;;;-2.07;64.60;102800.21;1774652;80;20953;-75
2022/12/04 01:15:49;;;;;;;13.30;7.97;;;;;;;-2.06;64.63;102808.89;1774646;80;20944;-74
2022/12/04 01:18:16;;;;;;;11.53;7.50;;;;;;;-2.06;64.71;102803.17;1774724;80;21119;-74
2022/12/04 01:20:49;;;;;;;12.85;7.30;;;;;;;-2.07;64.61;102803.28;1774560;80;21561;-75
2022/12/04 01:23:15;;;;;;;;;;;;;;;-2.08;64.57;102810.78;1778431;79;20944;-74
2022/12/04 01:25:57;;;;;;;13.50;7.47;;;;;;;-2.07;64.77;102810.69;1774447;80;20435;-73
2022/12/04 01:28:23;;;;;;;10.95;6.95;;;;;;;-2.07;64.77;102810.69;1774815;80;21102;-74
2022/12/04 01:31:12;;;;;;;12.33;7.40;;;;;;;-2.05;64.61;102812.69;1774820;80;21770;-74
2022/12/04 01:33:38;;;;;;;11.50;7.25;;;;;;;-2.05;64.53;102810.07;1774232;80;21015;-75
2022/12/04 01:36:08;;;;;;;14.35;7.92;;;;;;;-2.05;64.54;102811.38;1742268;80;21177;-74
2022/12/04 01:38:35;;;;;;;12.45;7.37;;;;;;;-2.05;64.63;102806.14;1774412;80;21019;-74
2022/12/04 01:41:02;;;;;;;13.65;7.75;;;;;;;-2.08;64.58;102803.77;1775426;79;21624;-74
2022/12/04 01:43:30;;;;;;;12.05;7.58;;;;;;;-2.08;64.57;102801.62;1774579;80;21891;-74
2022/12/04 01:45:58;;;;;;;12.50;7.72;;;;;;;-2.13;64.53;102806.74;1774705;80;20975;-74
2022/12/04 01:48:50;;;;;;;13.88;8.55;;;;;;;-2.16;64.55;102807.45;1774404;80;21121;-74
2022/12/04 01:51:20;;;;;;;11.35;6.85;;;;;;;-2.20;64.56;102809.96;1774223;80;20972;-73
2022/12/04 01:53:50;;;;;;;11.88;7.15;;;;;;;-2.19;64.95;102810.31;1774504;80;21039;-73
2022/12/04 01:56:19;;;;;;;13.05;7.53;;;;;;;-2.19;64.80;102805.91;1777262;79;21102;-73
2022/12/04 01:58:47;;;;;;;13.10;7.58;;;;;;;-2.18;64.67;102808.04;1793165;80;21072;-73
2022/12/04 05:17:14;;;;;;;18.98;10.15;;;;;;;-2.71;71.22;102855.61;1793662;79;21073;-76
2022/12/04 05:19:54;;;;;;;17.73;9.50;;;;;;;-2.81;70.80;102862.95;1776663;79;20912;-77
2022/12/04 05:22:43;;;;;;;;;;;;;;;;;;;;;
2022/12/04 05:25:07;;;;;;;19.87;10.75;;;;;;;-2.77;70.64;102863.08;1798424;79;21035;-77
2022/12/04 05:27:40;;;;;;;16.93;9.85;;;;;;;-2.83;70.41;102860.43;1764492;81;21526;-77
2022/12/04 05:30:12;;;;;;;17.82;10.28;;;;;;;-2.82;70.33;102866.05;1812703;79;21490;-77
2022/12/04 05:32:50;;;;;;;17.92;9.53;;;;;;;-2.86;70.16;102859.38;1819491;77;21099;-76
2022/12/04 05:35:25;;;;;;;18.62;9.50;;;;;;;-2.88;70.10;102866.48;1795483;76;21030;-77
2022/12/04 05:37:58;;;;;;;16.97;9.58;;;;;;;-2.89;70.09;102872.67;1817289;79;21062;-76
2022/12/04 05:40:38;;;;;;;15.85;9.35;;;;;;;-2.92;70.00;102869.80;1782534;78;21038;-76
2022/12/04 05:43:08;;;;;;;18.17;10.53;;;;;;;-2.90;69.99;102868.37;1841103;77;20947;-76
2022/12/04 05:45:40;;;;;;;17.25;9.80;;;;;;;-2.89;69.96;102876.59;1826658;77;21159;-76
2022/12/04 05:48:18;;;;;;;18.02;10.23;;;;;;;-2.84;69.92;102874.47;1805314;77;21099;-76
2022/12/04 05:50:50;;;;;;;18.48;9.78;;;;;;;-2.84;69.88;102870.54;1782193;79;21009;-76
2022/12/04 05:53:22;;;;;;;19.60;10.03;;;;;;;-2.85;69.83;102876.25;1776427;79;21036;-76
2022/12/04 05:56:08;;;;;;;;;;;;;;;;;;;;;
2022/12/04 05:58:43;;;;;;;18.57;9.20;;;;;;;-2.87;69.67;102879.91;1775561;80;21092;-76
2022/12/04 06:01:25;;;;;;;16.10;8.78;;;;;;;-2.91;69.54;102874.55;1801706;79;21017;-76
2022/12/04 06:03:58;;;;;;;18.07;9.68;;;;;;;-2.92;69.53;102879.43;1807588;78;20993;-76
2022/12/04 06:06:30;;;;;;;16.23;8.93;;;;;;;-2.92;69.50;102875.51;1796746;79;21579;-77
2022/12/04 06:09:00;;;;;;;17.75;8.48;;;;;;;-2.90;69.42;102874.91;1785780;78;21342;-77
2022/12/04 06:24:48;;;;;;;13.53;8.23;;;;;;;-2.61;68.32;102884.07;1853322;77;22452;-70
2022/12/04 06:27:15;;;;;;;12.53;7.22;;;;;;;-2.73;67.97;102890.67;1836884;77;21470;-68
2022/12/04 06:29:41;;;;;;;12.58;8.05;;;;;;;-2.84;67.73;102888.84;1842611;77;21116;-68
2022/12/04 06:32:07;;;;;;;12.45;7.33;;;;;;;-2.90;67.73;102894.52;1846061;77;20880;-68
2022/12/04 06:34:35;;;;;;;13.90;7.62;;;;;;;-2.94;67.79;102897.83;1837974;78;20914;-70
2022/12/04 06:37:02;;;;;;;13.38;6.85;;;;;;;-2.94;67.75;102904.84;1838134;78;20966;-70
2022/12/04 06:39:29;;;;;;;15.78;7.62;;;;;;;-2.99;67.45;102905.66;1838115;78;20938;-70
2022/12/04 06:41:56;;;;;;;12.73;7.65;;;;;;;-2.99;67.49;102904.36;1838197;78;22062;-69
2022/12/04 06:44:22;;;;;;;15.68;8.05;;;;;;;-2.99;67.49;102905.19;1831813;78;20919;-69
2022/12/04 06:46:49;;;;;;;14.45;8.03;;;;;;;-3.00;67.54;102898.74;1813528;77;21426;-70
2022/12/04 06:49:18;;;;;;;14.00;8.35;;;;;;;-3.00;67.34;102896.12;1824103;78;21510;-69
2022/12/04 06:51:45;;;;;;;12.23;7.15;;;;;;;-2.97;67.53;102903.75;1824155;78;20992;-70
2022/12/04 06:54:12;;;;;;;14.07;7.33;;;;;;;-2.95;67.33;102903.19;1823980;78;21321;-70
2022/12/04 06:56:39;;;;;;;12.33;7.60;;;;;;;-2.91;67.55;102903.31;1824612;78;21391;-70
2022/12/04 06:59:06;;;;;;;12.58;7.37;;;;;;;-2.91;67.55;102903.31;1824176;78;20927;-71
2022/12/04 07:01:34;;;;;;;13.40;7.62;;;;;;;-2.89;67.38;102904.05;1824102;78;21469;-70
2022/12/04 07:04:02;;;;;;;12.85;7.62;;;;;;;-2.88;67.33;102918.79;1824957;77;21034;-70
2022/12/04 07:06:33;;;;;;;15.48;8.43;;;;;;;-2.93;67.17;102911.73;1826134;78;21762;-69
2022/12/04 07:09:08;;;;;;;12.25;7.15;;;;;;;-2.81;67.19;102924.41;1835664;78;21046;-70
2022/12/04 07:11:37;;;;;;;14.18;7.62;;;;;;;-2.78;66.96;102921.58;1837996;78;20944;-69
2022/12/04 07:14:06;;;;;;;13.48;7.65;;;;;;;-2.78;66.96;102921.58;1838507;78;21010;-71
2022/12/04 07:16:33;;;;;;;15.15;8.28;;;;;;;-2.79;66.92;102915.99;1837859;78;20974;-71
2022/12/04 07:18:59;;;;;;;15.80;8.35;;;;;;;-2.86;66.68;102914.30;1837823;78;21546;-70
2022/12/04 07:21:30;;;;;;;12.65;7.37;;;;;;;-2.92;66.60;102914.73;1808536;78;20931;-70
2022/12/04 07:23:59;;;;;;;13.90;7.97;;;;;;;-2.98;66.57;102916.48;1837745;78;20875;-70
2022/12/04 07:26:27;;;;;;;13.62;7.85;;;;;;;-2.99;66.51;102914.81;1838300;78;21002;-69
2022/12/04 07:28:54;;;;;;;13.93;8.30;;;;;;;-2.99;66.59;102917.43;1838882;78;20986;-69
2022/12/04 07:31:22;;;;;;;13.15;7.78;;;;;;;-2.96;66.62;102911.50;1839015;78;21085;-70
2022/12/04 07:33:49;;;;;;;15.25;8.40;;;;;;;-2.95;66.56;102911.86;1838755;78;20939;-69
2022/12/04 07:36:18;;;;;;;14.50;7.75;;;;;;;-2.95;66.40;102913.64;1838449;78;20998;-71
2022/12/04 07:38:45;;;;;;;14.00;7.78;;;;;;;-2.94;66.17;102912.21;1852246;77;21501;-70
2022/12/04 07:41:13;;;;;;;17.07;8.60;;;;;;;-2.94;66.17;102912.21;1857761;77;21052;-71
2022/12/04 07:43:40;;;;;;;13.68;7.65;;;;;;;-2.90;66.28;102911.52;1857180;77;21006;-70
2022/12/04 07:46:13;;;;;;;13.35;7.80;;;;;;;-2.89;66.16;102914.03;1857026;77;20987;-68
2022/12/04 07:48:40;;;;;;;14.75;7.70;;;;;;;-2.91;65.91;102921.63;1843551;77;21003;-68
2022/12/04 07:51:10;;;;;;;11.80;7.00;;;;;;;-2.89;65.94;102911.90;1857119;77;21156;-68
2022/12/04 07:53:37;;;;;;;13.22;7.67;;;;;;;-2.86;65.68;102909.89;1856782;77;20983;-69
2022/12/04 07:56:04;;;;;;;15.70;8.35;;;;;;;-2.86;65.68;102909.89;1845168;77;21801;-69
2022/12/04 07:58:32;;;;;;;12.80;8.08;;;;;;;-2.82;65.70;102913.12;1863515;77;20959;-69
2022/12/04 08:01:11;;;;;;;13.60;8.03;;;;;;;-2.80;65.54;102922.98;1847295;77;20983;-69
2022/12/04 08:03:39;;;;;;;15.18;7.97;;;;;;;-2.86;64.76;102923.45;1863235;77;20987;-69
2022/12/04 08:06:06;;;;;;;14.13;7.10;;;;;;;-2.86;64.76;102923.45;1834772;77;21018;-68
2022/12/04 08:08:34;;;;;;;12.95;7.75;;;;;;;-2.90;65.17;102905.81;1857472;77;21186;-69
2022/12/04 08:11:02;;;;;;;15.30;7.37;;;;;;;-2.90;65.17;102905.81;1817279;78;21063;-69
2022/12/04 08:13:29;;;;;;;12.98;7.70;;;;;;;-2.83;65.33;102907.50;1827112;77;21544;-69
2022/12/04 08:15:56;;;;;;;12.90;7.33;;;;;;;-2.69;65.45;102900.81;1822475;78;20940;-69
2022/12/04 08:18:22;;;;;;;13.25;7.17;;;;;;;-2.69;65.45;102900.81;1836024;77;20999;-69
2022/12/04 08:20:49;;;;;;;12.55;7.80;;;;;;;-2.60;65.28;102902.77;1824405;78;21205;-69
2022/12/04 08:23:15;;;;;;;12.30;6.95;;;;;;;-2.59;64.92;102900.98;1825865;77;21718;-69
2022/12/04 08:25:42;;;;;;;13.03;7.47;;;;;;;-2.59;64.62;102900.98;1785001;79;21046;-69
2022/12/04 08:28:09;;;;;;;12.03;7.42;;;;;;;-2.57;64.54;102907.39;1824220;78;21420;-69
2022/12/04 08:30:37;;;;;;;14.35;7.35;;;;;;;-2.57;64.11;102907.39;1825331;75;21576;-69
2022/12/04 08:33:03;;;;;;;13.83;7.53;;;;;;;-2.57;64.16;102912.15;1789610;80;21648;-70
2022/12/04 08:35:30;;;;;;;13.05;7.40;;;;;;;-2.57;64.16;102900.38;1824337;78;21165;-69
2022/12/04 08:37:56;;;;;;;11.97;7.20;;;;;;;-2.55;64.02;102913.36;1789846;80;20999;-70
2022/12/04 08:40:24;;;;;;;12.30;7.35;;;;;;;-2.58;63.78;102907.05;1847328;77;20999;-69
2022/12/04 08:42:51;;;;;;;11.33;7.12;;;;;;;-2.58;63.79;102906.56;1857325;77;20990;-69
2022/12/04 08:45:17;;;;;;;12.18;7.20;;;;;;;-2.60;63.80;102908.00;1856773;77;21071;-69
2022/12/04 08:47:44;;;;;;;12.98;7.22;;;;;;;-2.59;63.78;102904.91;1856636;77;21049;-69
2022/12/04 08:50:10;;;;;;;11.78;7.30;;;;;;;-2.58;63.72;102901.33;1854608;77;21027;-69
2022/12/04 08:52:37;;;;;;;13.88;7.47;;;;;;;-2.56;63.92;102901.23;1857398;77;21010;-68
2022/12/04 08:55:05;;;;;;;12.00;7.22;;;;;;;-2.55;63.73;102896.36;1857587;77;20974;-67
2022/12/04 08:57:32;;;;;;;15.48;7.45;;;;;;;-2.56;63.63;102899.92;1845067;77;21911;-69
2022/12/04 08:59:58;;;;;;;13.28;7.50;;;;;;;-2.52;63.70;102883.05;1803845;79;21023;-69
2022/12/04 09:02:25;;;;;;;14.53;7.35;;;;;;;-2.52;63.70;102883.05;1803802;79;21541;-71
2022/12/04 09:04:52;;;;;;;12.47;6.75;;;;;;;-2.51;63.53;102863.77;1820510;77;21030;-71
2022/12/04 09:07:18;;;;;;;11.97;6.92;;;;;;;-2.46;63.68;102872.12;1789418;80;21054;-71
2022/12/04 09:09:45;;;;;;;11.33;6.97;;;;;;;-2.44;63.33;102872.34;1789779;80;21119;-69
2022/12/04 09:12:12;;;;;;;11.90;6.85;;;;;;;-2.43;63.17;102878.44;1810272;79;21019;-68
2022/12/04 09:14:38;;;;;;;13.68;7.37;;;;;;;-2.36;63.13;102885.71;1810141;79;21094;-70
2022/12/04 09:17:05;;;;;;;12.70;6.67;;;;;;;-2.36;62.83;102890.95;1810594;79;21039;-70
2022/12/04 09:19:34;;;;;;;12.37;6.37;;;;;;;-2.37;62.82;102889.29;1810456;79;20994;-69
2022/12/04 09:22:00;;;;;;;12.10;6.60;;;;;;;-2.32;62.88;102885.01;1810606;79;21791;-71
2022/12/04 09:24:29;;;;;;;10.82;6.60;;;;;;;-2.25;62.79;102884.07;1809950;79;21070;-70
2022/12/04 09:26:56;;;;;;;11.70;7.00;;;;;;;-2.24;62.48;102881.32;1810768;79;20943;-70
2022/12/04 09:29:22;;;;;;;12.53;6.47;;;;;;;-2.19;62.31;102884.92;1810519;79;21162;-71
2022/12/04 09:31:49;;;;;;;12.88;6.65;;;;;;;-2.17;62.07;102882.55;1810605;79;21023;-69
2022/12/04 09:34:16;;;;;;;11.57;6.15;;;;;;;-2.18;61.83;102883.48;1810150;79;21151;-69
2022/12/04 09:36:42;;;;;;;11.43;5.87;;;;;;;-2.13;61.93;102885.30;1810325;79;21418;-70
2022/12/04 09:39:09;;;;;;;11.57;6.58;;;;;;;-2.02;61.68;102878.41;1810381;79;20948;-71
2022/12/04 09:42:08;;;;;;;11.50;6.80;;;;;;;-2.03;61.46;102880.67;1810491;79;21113;-69
2022/12/04 09:44:47;;;;;;;10.93;6.87;;;;;;;-2.04;61.26;102888.15;1810515;79;20984;-69
2022/12/04 09:47:28;;;;;;;12.13;6.85;;;;;;;-2.03;61.21;102883.30;1810445;79;21744;-70
2022/12/04 09:50:05;;;;;;;9.50;6.03;;;;;;;-2.00;61.13;102881.75;1806832;79;20933;-70
2022/12/04 09:52:54;;;;;;;12.18;6.92;;;;;;;-1.92;61.05;102884.13;1810321;79;21118;-70
2022/12/04 09:55:34;;;;;;;10.60;6.78;;;;;;;-1.87;60.76;102878.55;1810460;79;21004;-69
2022/12/04 09:58:04;;;;;;;11.30;5.95;;;;;;;-1.86;60.40;102881.52;1810499;79;21508;-69
2022/12/04 10:00:32;;;;;;;9.35;5.25;;;;;;;-1.88;60.13;102878.17;1810492;79;21230;-69
2022/12/04 10:03:13;;;;;;;11.60;5.97;;;;;;;-1.84;60.09;102874.39;1823845;77;21004;-71
2022/12/04 10:06:05;;;;;;;12.05;6.58;;;;;;;-1.78;59.88;102874.37;1843640;77;21047;-69
2022/12/04 10:08:37;;;;;;;9.88;5.85;;;;;;;-1.71;59.70;102873.80;1815088;77;20984;-70
2022/12/04 10:11:18;;;;;;;11.08;6.85;;;;;;;-1.59;59.63;102866.75;1843579;77;21074;-70
2022/12/04 14:19:29;;;;;;;4.50;2.27;;;;;;;-2.39;61.69;102772.09;1780048;79;22596;-69
2022/12/04 14:21:56;;;;;;;5.43;2.57;;;;;;;-2.40;61.23;102768.30;1758144;81;20983;-70
2022/12/04 14:24:38;;;;;;;4.87;2.15;;;;;;;-2.40;60.89;102772.23;1734449;82;21088;-70
2022/12/04 14:27:36;;;;;;;4.90;2.15;;;;;;;-2.41;60.62;102775.77;1732652;82;21023;-71
2022/12/04 14:30:03;;;;;;;5.08;2.35;;;;;;;-2.44;60.39;102774.69;1738634;82;20995;-71
2022/12/04 14:32:33;;;;;;;6.15;2.58;;;;;;;-2.45;60.21;102769.11;1742482;82;21600;-70
2022/12/04 14:34:59;;;;;;;4.87;2.25;;;;;;;-2.48;60.07;102767.55;1712045;82;21522;-70
2022/12/04 14:37:31;;;;;;;4.50;2.10;;;;;;;-2.46;59.98;102771.38;1742417;82;21392;-69
2022/12/04 14:39:57;;;;;;;8.08;2.50;;;;;;;-2.49;59.78;102775.53;1742756;82;21011;-71
2022/12/04 14:42:35;;;;;;;6.53;2.58;;;;;;;-2.50;59.68;102775.16;1721537;81;21526;-70
2022/12/04 14:45:07;;;;;;;5.87;2.22;;;;;;;-2.51;59.56;102773.02;1712552;83;21047;-69
2022/12/04 14:47:55;;;;;;;5.33;2.60;;;;;;;-2.55;59.46;102773.38;1711593;83;21059;-70
2022/12/04 14:50:42;;;;;;;5.85;2.12;;;;;;;-2.57;59.46;102767.42;1713209;83;21627;-71
2022/12/04 14:53:35;;;;;;;6.08;2.52;;;;;;;-2.56;59.42;102769.11;1712889;83;21518;-70
2022/12/04 14:56:19;;;;;;;6.00;2.70;;;;;;;-2.57;59.40;102777.88;1712818;83;21028;-70
2022/12/04 14:58:46;;;;;;;5.62;2.20;;;;;;;-2.60;59.41;102777.19;1713861;82;21031;-70
2022/12/04 15:01:25;;;;;;;6.47;2.60;;;;;;;-2.62;59.22;102773.02;1715984;82;20952;-71
2022/12/04 15:03:58;;;;;;;5.28;2.58;;;;;;;-2.63;59.13;102776.11;1742050;81;21129;-71
2022/12/04 15:06:31;;;;;;;5.58;2.40;;;;;;;-2.67;59.07;102775.95;1740918;82;20972;-72
2022/12/04 15:14:42;;;;;;;7.42;3.65;;;;;;;-2.71;58.88;102778.45;1796215;80;21209;-69
2022/12/04 15:17:10;;;;;;;8.90;3.52;;;;;;;-2.71;58.71;102782.37;1761393;81;21148;-71
2022/12/04 15:19:38;;;;;;;5.12;2.50;;;;;;;-2.70;58.75;102780.14;1795608;80;20993;-70
2022/12/04 15:22:20;;;;;;;5.17;3.40;;;;;;;-2.69;58.69;102785.72;1795279;80;21056;-70
2022/12/04 15:24:46;;;;;;;6.15;3.20;;;;;;;-2.74;58.56;102776.54;1787760;80;21024;-69
2022/12/04 15:27:14;;;;;;;7.00;3.92;;;;;;;-2.77;58.52;102776.77;1795449;80;21036;-70
2022/12/04 15:29:47;;;;;;;6.08;3.20;;;;;;;-2.77;58.51;102777.59;1795796;80;21106;-70
2022/12/04 15:32:10;;;;;;;5.60;2.95;;;;;;;-2.79;58.48;102776.89;1788806;80;21656;-70
2022/12/04 15:34:43;;;;;;;5.53;3.00;;;;;;;-2.83;58.46;102776.74;1764034;81;21511;-70
2022/12/04 15:37:21;;;;;;;6.83;3.37;;;;;;;-2.84;58.45;102779.01;1758662;81;21130;-69
2022/12/04 15:39:48;;;;;;;8.83;4.47;;;;;;;-2.87;58.43;102778.75;1760841;81;21572;-71
2022/12/04 15:42:25;;;;;;;7.55;3.55;;;;;;;-2.89;58.38;102771.99;1760853;81;21067;-71
2022/12/04 15:45:02;;;;;;;7.42;3.60;;;;;;;-2.89;58.36;102776.75;1760685;81;20967;-70
2022/12/04 15:47:45;;;;;;;7.25;3.70;;;;;;;-2.87;58.18;102776.62;1760513;81;21027;-71
2022/12/04 15:50:25;;;;;;;6.90;3.60;;;;;;;-2.89;57.86;102775.91;1780070;80;21011;-70
2022/12/04 15:53:06;;;;;;;8.58;3.77;;;;;;;-2.88;57.79;102777.58;1795264;80;21105;-70
2022/12/04 15:55:52;;;;;;;9.45;4.28;;;;;;;-2.87;57.68;102774.00;1792203;80;21241;-70
2022/12/04 15:58:29;;;;;;;7.60;3.87;;;;;;;-2.91;57.53;102776.49;1795265;80;20992;-70
2022/12/04 16:01:06;;;;;;;8.20;3.95;;;;;;;-2.93;57.52;102771.84;1770559;80;20969;-71
2022/12/04 16:03:44;;;;;;;8.15;4.00;;;;;;;-2.94;57.32;102768.87;1749099;80;21444;-69
2022/12/04 16:06:27;;;;;;;6.72;3.50;;;;;;;-2.94;57.30;102773.62;1759458;80;21042;-70
2022/12/04 16:08:57;;;;;;;6.80;3.27;;;;;;;-2.93;57.26;102771.39;1759585;81;21562;-70
2022/12/04 16:11:35;;;;;;;7.12;3.72;;;;;;;-2.94;57.04;102767.56;1760730;81;21576;-71
2022/12/04 16:14:16;;;;;;;8.38;3.92;;;;;;;-2.95;56.83;102764.60;1760600;81;21097;-69
2022/12/04 16:16:47;;;;;;;;;;;;;;;-2.94;56.76;102764.95;1763719;81;21003;-71
2022/12/04 16:19:31;;;;;;;5.55;3.00;;;;;;;-2.93;56.65;102769.22;1760674;81;20158;-71
2022/12/04 16:21:58;;;;;;;8.08;3.90;;;;;;;-2.94;56.56;102769.70;1760607;80;21123;-71
2022/12/04 16:24:25;;;;;;;6.85;3.70;;;;;;;-2.97;56.20;102765.17;1761719;80;21435;-70
2022/12/04 16:26:53;;;;;;;6.28;3.62;;;;;;;-2.97;56.21;102770.41;1760852;80;21501;-70
2022/12/04 16:29:21;;;;;;;7.45;3.83;;;;;;;-2.97;56.11;102766.48;1760523;80;21011;-70
2022/12/04 16:31:47;;;;;;;8.65;3.87;;;;;;;-2.98;56.05;102763.52;1761039;81;21054;-71
2022/12/04 16:34:16;;;;;;;8.18;3.65;;;;;;;-3.00;55.91;102756.25;1760541;81;21154;-70
2022/12/04 16:36:42;;;;;;;8.55;3.65;;;;;;;-3.02;55.80;102763.39;1761031;80;21038;-70
2022/12/04 16:39:08;;;;;;;8.93;5.12;;;;;;;-3.02;55.74;102760.78;1760541;80;20960;-70
2022/12/04 16:41:35;;;;;;;7.45;3.92;;;;;;;-3.02;55.76;102752.45;1761933;80;20972;-69
2022/12/04 16:44:02;;;;;;;8.40;4.15;;;;;;;-3.01;55.60;102763.27;1760627;80;21063;-70
2022/12/04 16:46:29;;;;;;;7.25;3.87;;;;;;;-3.01;55.58;102750.67;1760769;80;21709;-71
2022/12/04 16:48:56;;;;;;;8.53;3.83;;;;;;;-3.02;55.41;102754.24;1760505;80;20944;-70
2022/12/04 16:51:24;;;;;;;8.63;4.12;;;;;;;-3.02;55.28;102760.30;1760740;81;20998;-71
2022/12/04 16:53:51;;;;;;;8.58;3.83;;;;;;;-2.99;55.24;102760.55;1760484;81;20987;-71
2022/12/04 16:56:18;;;;;;;10.55;7.33;;;;;;;-3.02;55.21;102754.24;1760873;80;21055;-71
2022/12/04 16:58:45;;;;;;;9.63;6.05;;;;;;;-3.04;55.26;102760.05;1765127;80;21166;-70
2022/12/04 17:01:20;;;;;;;10.03;5.37;;;;;;;-3.09;55.06;102750.77;1792120;78;21130;-70
2022/12/04 17:03:46;;;;;;;8.10;4.35;;;;;;;-3.07;55.04;102751.95;1767532;80;21047;-71
2022/12/04 17:06:15;;;;;;;8.43;4.42;;;;;;;-3.06;55.08;102758.83;1760738;80;20983;-72
2022/12/04 17:08:41;;;;;;;9.90;4.25;;;;;;;-3.05;55.04;102758.39;1760477;80;20936;-70
2022/12/04 17:11:14;;;;;;;9.23;4.25;;;;;;;-3.08;54.88;102753.73;1760843;81;21150;-70
2022/12/04 17:13:40;;;;;;;8.23;3.58;;;;;;;-3.07;54.84;102758.01;1760814;80;21494;-71
2022/12/04 17:16:07;;;;;;;7.12;3.45;;;;;;;-3.08;54.77;102751.13;1760963;81;21161;-70
2022/12/04 17:18:34;;;;;;;6.03;3.20;;;;;;;-3.09;54.74;102750.77;1760674;80;20956;-71
2022/12/04 17:21:06;;;;;;;8.15;3.08;;;;;;;-3.09;54.64;102752.55;1760981;81;21145;-70
2022/12/04 17:23:33;;;;;;;6.62;3.10;;;;;;;-3.13;54.61;102753.23;1760477;81;21130;-70
2022/12/04 17:26:03;;;;;;;9.05;3.08;;;;;;;-3.12;54.61;102754.91;1761102;81;20979;-70
2022/12/04 17:28:30;;;;;;;6.65;3.17;;;;;;;-3.17;54.59;102749.66;1759959;80;21517;-71
2022/12/04 17:30:57;;;;;;;6.53;3.47;;;;;;;-3.19;54.59;102751.09;1761978;80;21026;-71
2022/12/04 17:33:25;;;;;;;6.17;3.45;;;;;;;-3.20;54.68;102748.09;1760687;80;21047;-72
2022/12/04 17:35:53;;;;;;;5.65;2.62;;;;;;;-3.19;54.71;102751.09;1760876;80;21538;-69
2022/12/04 17:38:20;;;;;;;6.78;3.05;;;;;;;-3.18;54.77;102749.30;1760602;80;21040;-70
2022/12/04 17:41:00;;;;;;;6.45;3.10;;;;;;;-3.19;54.70;102753.70;1761153;80;21114;-71
2022/12/04 17:43:28;;;;;;;6.40;3.20;;;;;;;-3.23;54.72;102760.08;1759401;80;21086;-70
2022/12/04 17:45:56;;;;;;;10.82;3.60;;;;;;;-3.27;54.84;102758.64;1764322;81;21525;-71
2022/12/04 17:48:25;;;;;;;6.90;3.12;;;;;;;-3.31;54.75;102755.42;1759511;81;21254;-70
2022/12/04 17:51:10;;;;;;;6.30;3.05;;;;;;;-3.30;54.79;102755.77;1763918;81;21051;-70
2022/12/04 17:53:38;;;;;;;6.25;3.17;;;;;;;-3.31;54.77;102752.80;1760405;81;21097;-70
2022/12/04 17:56:10;;;;;;;9.05;3.85;;;;;;;-3.35;54.59;102756.59;1764151;81;21026;-71
2022/12/04 17:58:37;;;;;;;7.80;3.45;;;;;;;-3.34;54.74;102754.34;1760616;81;21054;-70
2022/12/04 18:01:10;;;;;;;7.90;3.50;;;;;;;-3.34;54.71;102756.13;1764091;80;21170;-70
2022/12/04 22:11:57;;;;;;;7.63;3.10;;;;;;;-5.52;64.46;102820.41;1841719;77;23373;-70
2022/12/04 22:14:24;;;;;;;6.50;2.98;;;;;;;-5.33;63.96;102818.79;1816798;79;21532;-70
2022/12/04 22:16:51;;;;;;;4.97;2.65;;;;;;;-5.15;62.93;102817.23;1808060;79;21521;-71
2022/12/04 22:19:18;;;;;;;8.75;2.83;;;;;;;-5.09;62.40;102809.03;1786820;79;20928;-73
2022/12/04 22:21:46;;;;;;;6.22;2.65;;;;;;;-5.70;62.78;102808.52;1784341;80;20971;-72
2022/12/04 22:24:13;;;;;;;11.33;3.00;;;;;;;-5.14;61.79;102805.41;1784815;80;20970;-70
2022/12/04 22:26:40;;;;;;;7.05;3.00;;;;;;;-5.06;61.27;102801.84;1784402;80;20840;-71
2022/12/04 22:29:06;;;;;;;8.10;3.15;;;;;;;-5.05;60.78;102802.20;1784557;80;21122;-69
2022/12/04 22:31:33;;;;;;;6.62;2.72;;;;;;;-5.06;60.47;102804.45;1784311;80;20996;-71
2022/12/04 22:34:00;;;;;;;6.78;3.37;;;;;;;-5.04;60.19;102803.87;1794823;79;21414;-70
2022/12/04 22:36:30;;;;;;;6.08;3.00;;;;;;;-5.05;59.87;102807.89;1816419;79;20980;-70
2022/12/04 22:38:56;;;;;;;7.17;2.87;;;;;;;-5.05;59.45;102807.42;1816673;79;21557;-70
2022/12/04 22:41:24;;;;;;;6.97;3.00;;;;;;;-5.08;59.10;102808.92;1816566;79;21113;-70
2022/12/04 22:43:50;;;;;;;6.90;2.87;;;;;;;-5.07;58.96;102807.14;1816614;79;20923;-70
2022/12/04 22:46:16;;;;;;;6.62;3.02;;;;;;;-5.08;58.83;102806.31;1816368;79;20962;-70
2022/12/04 22:48:43;;;;;;;7.72;3.20;;;;;;;-5.08;58.76;102801.09;1816689;79;21489;-71
2022/12/04 22:51:13;;;;;;;6.97;3.20;;;;;;;-5.09;58.51;102798.14;1815283;79;21079;-71
2022/12/04 22:53:44;;;;;;;6.20;3.17;;;;;;;-5.08;58.54;102801.09;1816212;79;21151;-70
2022/12/04 22:56:20;;;;;;;8.13;3.40;;;;;;;-5.09;58.31;102792.09;1792291;79;20952;-71
2022/12/04 22:58:46;;;;;;;7.22;3.42;;;;;;;-5.16;57.93;102797.34;1783785;80;21533;-71
2022/12/04 23:01:17;;;;;;;9.30;4.12;;;;;;;-5.14;58.05;102806.70;1784237;79;20998;-70
2022/12/04 23:03:45;;;;;;;9.60;2.90;;;;;;;-5.14;57.97;102799.36;1785114;80;21118;-71
2022/12/04 23:06:12;;;;;;;8.03;3.47;;;;;;;-5.17;57.87;102804.30;1784334;80;21074;-71
2022/12/04 23:08:40;;;;;;;7.65;3.17;;;;;;;-5.18;57.87;102801.33;1803767;79;20923;-70
2022/12/04 23:11:12;;;;;;;9.20;3.30;;;;;;;-5.16;57.86;102805.98;1816124;79;20988;-70
2022/12/04 23:13:39;;;;;;;;;;;;;;;-5.21;57.78;102798.92;1819384;79;20955;-70
2022/12/04 23:16:07;;;;;;;6.42;2.95;;;;;;;-5.21;57.81;102790.62;1816561;78;20252;-71
2022/12/04 23:18:34;;;;;;;6.25;2.77;;;;;;;-5.23;57.79;102799.03;1816895;79;21736;-70
2022/12/04 23:21:07;;;;;;;7.97;3.50;;;;;;;-5.23;57.81;102796.90;1816323;79;20948;-71
2022/12/04 23:23:36;;;;;;;8.25;2.98;;;;;;;-5.24;57.79;102793.91;1815641;79;21010;-70
2022/12/04 23:26:08;;;;;;;10.25;3.77;;;;;;;-5.24;57.78;102796.03;1814719;79;21498;-70
2022/12/04 23:28:35;;;;;;;7.72;2.67;;;;;;;-5.22;57.78;102792.05;1816288;79;21021;-71